Time;durP1;ratioP1;P1;durP2;ratioP2;P2;SDS_P1;SDS_P2;PMS_P1;PMS_P2;Temp;Humidity;BMP_temperature;BMP_pressure;BME280_temperature;BME280_humidity;BME280_pressure;Samples;Min_cycle;Max_cycle;Signal;HPM_P1;HPM_P2
2023/01/04 00:00:52;;;;;;;;;;;;;;;4.57;78.86;102165.31;4107099;28;19948;-80
2023/01/04 00:03:12;;;;;;;;;;;;;;;4.58;78.52;102156.31;4105896;28;19933;-80
2023/01/04 00:05:33;;;;;;;;;;;;;;;4.57;78.35;102159.09;4107518;28;20268;-81
2023/01/04 00:07:54;;;;;;;;;;;;;;;4.57;78.73;102157.28;4107172;28;19942;-79
2023/01/04 00:10:17;;;;;;;;;;;;;;;4.59;78.57;102154.50;4107252;28;19928;-81
2023/01/04 00:12:37;;;;;;;;;;;;;;;4.58;78.63;102150.97;4106889;28;19929;-79
2023/01/04 00:14:58;;;;;;;;;;;;;;;4.59;78.44;102133.97;4107842;28;19929;-79
2023/01/04 00:17:19;;;;;;;;;;;;;;;4.57;78.35;102135.88;4109172;28;19930;-80
2023/01/04 00:19:39;;;;;;;;;;;;;;;4.56;78.64;102133.28;4107527;28;19928;-81
2023/01/04 00:22:00;;;;;;;;;;;;;;;4.54;78.65;102125.38;4107171;28;19933;-81
2023/01/04 00:24:21;;;;;;;;;;;;;;;4.53;78.40;102128.16;4106189;28;19973;-80
2023/01/04 00:26:42;;;;;;;;;;;;;;;4.51;78.64;102121.09;4107075;28;19993;-79
2023/01/04 00:29:04;;;;;;;;;;;;;;;4.49;78.75;102114.97;4106652;28;20428;-80
2023/01/04 00:31:25;;;;;;;;;;;;;;;4.49;78.77;102112.31;4107043;28;19928;-79
2023/01/04 00:33:46;;;;;;;;;;;;;;;4.48;78.59;102112.41;4106052;28;19937;-81
2023/01/04 00:36:08;;;;;;;;;;;;;;;4.46;78.70;102107.16;4107387;28;19969;-79
2023/01/04 00:38:28;;;;;;;;;;;;;;;4.45;79.00;102104.59;4107432;28;20453;-80
2023/01/04 00:40:49;;;;;;;;;;;;;;;4.43;79.04;102095.81;4107108;28;19950;-81
2023/01/04 00:43:11;;;;;;;;;;;;;;;4.42;79.26;102089.63;4107124;28;19969;-80
2023/01/04 00:45:32;;;;;;;;;;;;;;;4.41;79.09;102084.38;4106930;28;20111;-80
2023/01/04 00:47:53;;;;;;;;;;;;;;;4.38;79.27;102073.88;4106694;28;19938;-79
2023/01/04 00:50:14;;;;;;;;;;;;;;;4.38;79.37;102077.41;4107036;28;20007;-80
2023/01/04 00:52:34;;;;;;;;;;;;;;;4.39;79.27;102070.22;4107056;28;20333;-80
2023/01/04 00:54:55;;;;;;;;;;;;;;;4.38;79.36;102068.53;4107040;28;20013;-80
2023/01/04 00:57:15;;;;;;;;;;;;;;;4.37;79.44;102064.13;4106972;28;19977;-79
2023/01/04 00:59:38;;;;;;;;;;;;;;;4.37;79.71;102054.28;4111860;28;20456;-80
2023/01/04 01:01:59;;;;;;;;;;;;;;;4.39;79.49;102051.50;4106829;28;20455;-79
2023/01/04 01:04:20;;;;;;;;;;;;;;;4.37;79.57;102046.25;4105805;28;19929;-81
2023/01/04 01:06:41;;;;;;;;;;;;;;;4.34;79.89;102038.44;4111771;28;19929;-80
2023/01/04 01:09:01;;;;;;;;;;;;;;;4.32;79.48;102027.00;4119400;28;20527;-81
2023/01/04 01:11:22;;;;;;;;;;;;;;;4.29;79.77;102017.34;4106491;28;20009;-79
2023/01/04 01:13:43;;;;;;;;;;;;;;;4.29;79.79;102030.72;4106630;28;19929;-80
2023/01/04 01:16:06;;;;;;;;;;;;;;;4.33;79.99;102031.41;4107439;28;19929;-81
2023/01/04 01:18:27;;;;;;;;;;;;;;;4.32;79.58;102030.53;4106964;28;19985;-80
2023/01/04 01:20:47;;;;;;;;;;;;;;;4.32;79.81;102035.88;4107397;28;19929;-82
2023/01/04 01:23:08;;;;;;;;;;;;;;;4.32;80.01;102038.53;4119526;28;19928;-81
2023/01/04 01:25:28;;;;;;;;;;;;;;;4.36;80.00;102033.88;4105941;28;19990;-81
2023/01/04 01:27:49;;;;;;;;;;;;;;;4.38;79.75;102034.59;4106752;28;19929;-80
2023/01/04 01:30:10;;;;;;;;;;;;;;;4.39;79.91;102038.13;4106942;28;19981;-80
2023/01/04 01:32:32;;;;;;;;;;;;;;;4.38;79.79;102031.94;4106300;28;19937;-80
2023/01/04 01:34:52;;;;;;;;;;;;;;;4.39;79.73;102038.13;4106568;28;20346;-80
2023/01/04 01:37:13;;;;;;;;;;;;;;;4.36;79.70;102025.84;4118892;28;19977;-80
2023/01/04 01:39:35;;;;;;;;;;;;;;;4.33;79.83;102021.53;4111955;28;19969;-80
2023/01/04 01:41:56;;;;;;;;;;;;;;;4.32;80.07;102025.16;4106267;28;20557;-81
2023/01/04 01:44:35;;;;;;;;;;;;;;;4.30;79.92;102023.59;4106494;28;19976;-80
2023/01/04 01:46:56;;;;;;;;;;;;;;;4.35;80.18;102028.63;4106106;28;19985;-83
2023/01/04 01:49:23;;;;;;;;;;;;;;;4.36;79.90;102028.50;4106841;28;20376;-80
2023/01/04 01:51:44;;;;;;;;;;;;;;;4.34;80.04;102033.09;4106852;28;19985;-79
2023/01/04 01:54:05;;;;;;;;;;;;;;;4.36;79.79;102036.53;4107261;28;20010;-83
2023/01/04 01:56:26;;;;;;;;;;;;;;;4.35;79.71;102028.63;4107426;28;19977;-80
2023/01/04 01:58:48;;;;;;;;;;;;;;;4.38;79.63;102020.38;4106806;28;19928;-82
2023/01/04 02:01:08;;;;;;;;;;;;;;;4.37;79.48;102032.03;4106648;28;19952;-80
2023/01/04 02:03:30;;;;;;;;;;;;;;;4.36;79.68;102024.97;4106080;28;19929;-80
2023/01/04 02:05:53;;;;;;;;;;;;;;;4.37;79.70;102016.81;4106192;28;20025;-81
2023/01/04 02:08:14;;;;;;;;;;;;;;;4.42;79.41;102016.50;4105865;28;19929;-82
2023/01/04 02:10:35;;;;;;;;;;;;;;;4.43;79.45;102018.25;4119066;28;19928;-80
2023/01/04 02:12:55;;;;;;;;;;;;;;;4.41;79.21;102004.97;4118426;28;19932;-81
2023/01/04 02:15:16;;;;;;;;;;;;;;;4.38;78.85;101994.47;4112137;28;20287;-81
2023/01/04 02:17:39;;;;;;;;;;;;;;;4.33;79.00;102002.81;4121777;28;19960;-80
2023/01/04 02:20:03;;;;;;;;;;;;;;;4.30;79.16;101988.81;4108998;28;19929;-80
2023/01/04 02:22:49;;;;;;;;;;;;;;;4.26;79.07;101976.59;4108690;28;19929;-79
2023/01/04 02:25:37;;;;;;;;;;;;;;;4.21;79.13;101960.88;4109152;28;19933;-80
2023/01/04 02:27:58;;;;;;;;;;;;;;;4.21;79.23;101955.50;4081117;28;19929;-81
2023/01/04 02:30:33;;;;;;;;;;;;;;;4.19;79.35;101943.25;4109086;28;19958;-80
2023/01/04 02:32:59;;;;;;;;;;;;;;;4.19;79.35;101937.88;4113883;28;19929;-82
2023/01/04 02:35:21;;;;;;;;;;;;;;;4.20;79.33;101929.75;4108868;28;19937;-80
2023/01/04 02:37:43;;;;;;;;;;;;;;;4.25;79.05;101921.41;4107240;28;19937;-82
2023/01/04 02:40:05;;;;;;;;;;;;;;;4.27;79.24;101917.66;4109179;28;20398;-82
2023/01/04 02:44:51;;;;;;;;;;;;;;;4.22;78.79;101917.13;4109833;28;19981;-81
2023/01/04 02:45:08;;;;;;;;;;;;;;;4.20;79.10;101907.50;4107666;28;19929;-82
2023/01/04 02:50:31;;;;;;;;;;;;;;;4.24;79.21;101899.16;4108681;28;19928;-83
2023/01/04 02:52:53;;;;;;;;;;;;;;;4.27;79.11;101890.06;4121199;28;19933;-81
2023/01/04 02:55:14;;;;;;;;;;;;;;;4.27;79.23;101885.56;4108578;28;20424;-81
2023/01/04 02:57:39;;;;;;;;;;;;;;;4.26;79.17;101885.66;4108741;28;19938;-80
2023/01/04 03:00:06;;;;;;;;;;;;;;;4.27;79.14;101882.88;4108753;28;20035;-81
2023/01/04 03:07:51;;;;;;;;;;;;;;;4.41;78.81;101884.59;4107914;28;20017;-81
2023/01/04 03:10:15;;;;;;;;;;;;;;;4.35;78.68;101878.84;4108893;28;19928;-81
2023/01/04 03:12:37;;;;;;;;;;;;;;;4.31;78.58;101867.47;4112876;28;20095;-83
2023/01/04 03:14:59;;;;;;;;;;;;;;;4.31;78.75;101867.47;4108936;28;20336;-84
2023/01/04 03:17:20;;;;;;;;;;;;;;;4.31;78.91;101865.66;4109047;28;19933;-81
2023/01/04 03:19:54;;;;;;;;;;;;;;;4.36;79.16;101870.69;4108813;28;19929;-81
2023/01/04 03:35:27;;;;;;;;;;;;;;;4.38;79.29;101833.13;4108018;28;20025;-82
2023/01/04 03:37:49;;;;;;;;;;;;;;;4.40;78.97;101815.16;4106807;28;20696;-82
2023/01/04 03:48:29;;;;;;;;;;;;;;;4.37;78.63;101808.19;4108223;28;19929;-83
2023/01/04 03:50:52;;;;;;;;;;;;;;;4.35;78.95;101803.94;4107975;28;19933;-82
2023/01/04 03:53:13;;;;;;;;;;;;;;;4.36;78.99;101795.81;4113564;28;19932;-81
2023/01/04 03:55:34;;;;;;;;;;;;;;;4.35;78.80;101782.53;4108820;28;19976;-79
2023/01/04 03:57:55;;;;;;;;;;;;;;;4.32;79.02;101779.09;4112885;28;19969;-81
2023/01/04 04:00:17;;;;;;;;;;;;;;;4.35;79.10;101769.16;4107403;28;20552;-81
2023/01/04 04:02:39;;;;;;;;;;;;;;;4.35;79.37;101777.19;4108123;28;20273;-80
2023/01/04 04:10:17;;;;;;;;;;;;;;;4.41;79.31;101755.34;4108112;28;20324;-81
2023/01/04 04:12:37;;;;;;;;;;;;;;;4.42;79.17;101749.00;4108241;28;19995;-81
2023/01/04 04:15:00;;;;;;;;;;;;;;;4.41;79.38;101760.69;4107186;28;19949;-81
2023/01/04 04:17:20;;;;;;;;;;;;;;;4.40;79.31;101748.28;4107687;28;19932;-83
2023/01/04 04:19:41;;;;;;;;;;;;;;;4.40;79.25;101754.47;4108452;28;20423;-81
2023/01/04 04:22:02;;;;;;;;;;;;;;;4.39;79.16;101742.09;4093486;28;19933;-80
2023/01/04 04:24:24;;;;;;;;;;;;;;;4.36;79.26;101733.41;4107312;28;20017;-82
2023/01/04 04:26:44;;;;;;;;;;;;;;;4.33;79.36;101726.47;4113285;28;20323;-80
2023/01/04 04:29:05;;;;;;;;;;;;;;;4.30;79.14;101710.66;4107760;28;19933;-81
2023/01/04 04:31:27;;;;;;;;;;;;;;;4.28;79.59;101715.28;4107007;28;19929;-80
2023/01/04 04:33:47;;;;;;;;;;;;;;;4.26;79.49;101709.16;4107568;28;19954;-80
2023/01/04 04:36:08;;;;;;;;;;;;;;;4.23;79.88;101704.03;4108909;28;19968;-80
2023/01/04 04:38:29;;;;;;;;;;;;;;;4.22;80.00;101702.34;4107680;28;19980;-81
2023/01/04 04:43:28;;;;;;;;;;;;;;;4.21;80.07;101687.25;4111158;28;19929;-81
2023/01/04 04:45:49;;;;;;;;;;;;;;;4.20;80.01;101681.06;4107384;28;19929;-80
2023/01/04 04:48:10;;;;;;;;;;;;;;;4.21;80.43;101677.41;4119536;28;19929;-83
2023/01/04 04:50:31;;;;;;;;;;;;;;;4.25;80.05;101678.06;4107367;28;19929;-82
2023/01/04 04:52:52;;;;;;;;;;;;;;;4.27;80.17;101671.63;4107457;28;20428;-80
2023/01/04 04:55:13;;;;;;;;;;;;;;;4.28;80.28;101659.97;4107562;28;19933;-81
2023/01/04 04:57:33;;;;;;;;;;;;;;;4.30;80.25;101658.00;4107391;28;19937;-81
2023/01/04 04:59:54;;;;;;;;;;;;;;;4.31;80.19;101645.50;4107093;28;19976;-82
2023/01/04 05:02:14;;;;;;;;;;;;;;;4.28;80.10;101630.53;4107327;28;20627;-80
2023/01/04 05:04:36;;;;;;;;;;;;;;;4.27;80.20;101620.81;4107283;28;19933;-80
2023/01/04 05:06:57;;;;;;;;;;;;;;;4.28;80.63;101621.69;4107030;28;20042;-79
2023/01/04 05:09:18;;;;;;;;;;;;;;;4.28;80.69;101613.66;4107360;28;19932;-81
2023/01/04 05:14:17;;;;;;;;;;;;;;;4.36;80.66;101607.69;4107343;28;19929;-80
2023/01/04 05:16:38;;;;;;;;;;;;;;;4.38;80.64;101603.97;4108712;28;20583;-80
2023/01/04 05:18:59;;;;;;;;;;;;;;;4.41;80.61;101603.72;4108138;28;20001;-80
2023/01/04 05:21:21;;;;;;;;;;;;;;;4.42;80.25;101592.06;4107812;28;20021;-80
2023/01/04 05:23:42;;;;;;;;;;;;;;;4.44;80.13;101590.13;4107400;28;19965;-82
2023/01/04 05:26:02;;;;;;;;;;;;;;;4.44;80.31;101573.22;4107054;28;19929;-81
2023/01/04 05:28:23;;;;;;;;;;;;;;;4.42;80.38;101569.78;4106934;28;19929;-80
2023/01/04 05:30:52;;;;;;;;;;;;;;;4.40;80.23;101564.56;4106728;28;19972;-79
2023/01/04 05:33:13;;;;;;;;;;;;;;;4.38;80.34;101553.13;4106907;28;19933;-82
2023/01/04 05:35:33;;;;;;;;;;;;;;;4.39;80.77;101551.31;4105735;28;19981;-81
2023/01/04 05:37:55;;;;;;;;;;;;;;;4.39;80.89;101543.28;4112506;28;19933;-79
2023/01/04 05:40:16;;;;;;;;;;;;;;;4.40;80.77;101526.28;4106827;28;19973;-83
2023/01/04 05:42:36;;;;;;;;;;;;;;;4.41;80.71;101528.00;4112499;28;19973;-80
2023/01/04 05:44:57;;;;;;;;;;;;;;;4.42;80.91;101522.53;4107360;28;19937;-82
2023/01/04 05:47:18;;;;;;;;;;;;;;;4.40;80.93;101503.03;4107706;28;19997;-80
2023/01/04 05:49:38;;;;;;;;;;;;;;;4.43;81.06;101504.66;4107174;28;20006;-80
2023/01/04 05:51:59;;;;;;;;;;;;;;;4.44;81.09;101498.34;4110877;28;20702;-82
2023/01/04 05:54:21;;;;;;;;;;;;;;;4.46;81.27;101491.03;4109870;28;19928;-82
2023/01/04 05:56:42;;;;;;;;;;;;;;;4.49;81.13;101494.31;4114818;28;19933;-83
2023/01/04 05:59:02;;;;;;;;;;;;;;;4.53;81.12;101486.91;4110071;28;19930;-83
2023/01/04 06:01:23;;;;;;;;;;;;;;;4.56;81.02;101488.47;4109572;28;19933;-79
2023/01/04 06:03:43;;;;;;;;;;;;;;;4.57;81.22;101483.03;4109932;28;19928;-81
2023/01/04 06:06:04;;;;;;;;;;;;;;;4.57;81.03;101477.66;4109429;28;20380;-79
2023/01/04 06:08:25;;;;;;;;;;;;;;;4.60;81.26;101474.75;4109950;28;19973;-82
2023/01/04 06:10:53;;;;;;;;;;;;;;;4.64;81.28;101465.53;4108796;28;19949;-81
2023/01/04 06:13:14;;;;;;;;;;;;;;;4.68;81.27;101460.78;4109516;28;19929;-79
2023/01/04 06:15:35;;;;;;;;;;;;;;;4.72;81.16;101458.69;4110057;28;19945;-80
2023/01/04 06:17:55;;;;;;;;;;;;;;;4.78;81.19;101453.72;4109047;28;19932;-85
2023/01/04 06:20:16;;;;;;;;;;;;;;;4.84;81.15;101453.25;4110191;28;20489;-80
2023/01/04 06:22:39;;;;;;;;;;;;;;;4.90;80.83;101454.56;4110555;28;20010;-80
2023/01/04 06:25:00;;;;;;;;;;;;;;;4.94;81.04;101457.88;4109861;28;20373;-80
2023/01/04 06:27:22;;;;;;;;;;;;;;;4.98;80.68;101449.44;4109661;28;19968;-80
2023/01/04 06:29:42;;;;;;;;;;;;;;;5.03;80.73;101447.25;4109108;28;20066;-82
2023/01/04 06:32:03;;;;;;;;;;;;;;;5.07;80.55;101426.44;4112411;28;19942;-80
2023/01/04 06:34:23;;;;;;;;;;;;;;;5.10;80.07;101428.03;4107798;28;19929;-79
2023/01/04 06:36:44;;;;;;;;;;;;;;;5.11;79.94;101419.00;4110779;28;19933;-81
2023/01/04 06:39:05;;;;;;;;;;;;;;;5.13;80.09;101414.41;4121468;28;20065;-79
2023/01/04 06:41:25;;;;;;;;;;;;;;;5.15;79.84;101402.56;4108748;28;20257;-80
2023/01/04 06:43:47;;;;;;;;;;;;;;;5.18;79.73;101393.44;4106466;28;19925;-80
2023/01/04 06:46:07;;;;;;;;;;;;;;;5.19;79.95;101381.75;4108908;28;20024;-80
2023/01/04 06:48:28;;;;;;;;;;;;;;;5.22;79.64;101384.19;4109274;28;19965;-79
2023/01/04 06:50:48;;;;;;;;;;;;;;;5.22;79.49;101385.03;4110770;28;20241;-79
2023/01/04 06:53:08;;;;;;;;;;;;;;;5.26;79.34;101382.09;4108511;28;20103;-79
2023/01/04 06:55:29;;;;;;;;;;;;;;;5.28;79.24;101383.66;4109747;28;19957;-81
2023/01/04 06:57:49;;;;;;;;;;;;;;;5.32;79.18;101378.91;4106035;28;19933;-81
2023/01/04 07:00:12;;;;;;;;;;;;;;;5.35;78.93;101368.78;4108349;28;20257;-80
2023/01/04 07:02:33;;;;;;;;;;;;;;;5.37;78.82;101365.97;4109092;28;20004;-79
2023/01/04 07:04:54;;;;;;;;;;;;;;;5.40;78.85;101363.03;4109194;28;20265;-80
2023/01/04 07:07:15;;;;;;;;;;;;;;;5.43;78.57;101360.09;4107132;28;20017;-79
2023/01/04 07:09:35;;;;;;;;;;;;;;;5.48;78.64;101360.56;4120748;28;19992;-80
2023/01/04 07:11:57;;;;;;;;;;;;;;;5.53;78.34;101360.19;4109063;28;19960;-80
2023/01/04 07:14:17;;;;;;;;;;;;;;;5.60;78.18;101348.81;4109786;28;19929;-81
2023/01/04 07:16:39;;;;;;;;;;;;;;;5.66;77.81;101362.66;4109473;28;20384;-79
2023/01/04 07:18:59;;;;;;;;;;;;;;;5.72;77.54;101340.72;4108722;28;19975;-80
2023/01/04 07:21:20;;;;;;;;;;;;;;;5.77;77.04;101351.91;4106478;28;20000;-81
2023/01/04 07:23:40;;;;;;;;;;;;;;;5.82;76.92;101330.91;4108452;28;19981;-79
2023/01/04 07:26:01;;;;;;;;;;;;;;;5.85;76.73;101327.13;4109991;28;19948;-79
2023/01/04 07:31:06;;;;;;;;;;;;;;;5.90;76.87;101312.34;4106935;28;19945;-80
2023/01/04 07:33:28;;;;;;;;;;;;;;;5.95;76.84;101320.81;4120907;28;20062;-79
2023/01/04 07:35:48;;;;;;;;;;;;;;;6.00;77.03;101311.56;4107553;28;19977;-80
2023/01/04 07:38:09;;;;;;;;;;;;;;;6.03;76.98;101311.31;4108604;28;19936;-81
2023/01/04 07:40:30;;;;;;;;;;;;;;;6.03;77.48;101319.34;4108420;28;20364;-78
2023/01/04 07:42:56;;;;;;;;;;;;;;;6.02;77.59;101302.41;4107899;28;19933;-80
2023/01/04 07:45:17;;;;;;;;;;;;;;;6.03;78.33;101305.94;4106733;28;19925;-79
2023/01/04 07:47:38;;;;;;;;;;;;;;;6.03;78.72;101303.25;4109015;28;20008;-79
2023/01/04 07:50:00;;;;;;;;;;;;;;;6.05;79.21;101306.66;4107121;28;20069;-80
2023/01/04 07:52:20;;;;;;;;;;;;;;;6.06;79.34;101300.31;4120338;28;20411;-80
2023/01/04 07:54:41;;;;;;;;;;;;;;;6.06;79.72;101279.69;4108950;28;19932;-79
2023/01/04 07:57:01;;;;;;;;;;;;;;;6.06;80.05;101290.44;4119808;28;19924;-80
2023/01/04 07:59:21;;;;;;;;;;;;;;;6.08;80.51;101290.28;4120012;28;19977;-79
2023/01/04 08:01:42;;;;;;;;;;;;;;;6.07;80.82;101268.00;4105063;28;19928;-81
2023/01/04 08:04:03;;;;;;;;;;;;;;;6.09;81.09;101249.09;4098184;28;19984;-81
2023/01/04 08:06:26;;;;;;;;;;;;;;;6.07;81.44;101262.63;4104749;28;19929;-81
2023/01/04 08:08:46;;;;;;;;;;;;;;;6.07;81.64;101261.78;4108025;28;19936;-79
2023/01/04 08:11:08;;;;;;;;;;;;;;;6.05;81.95;101247.66;4107995;28;19933;-79
2023/01/04 08:13:29;;;;;;;;;;;;;;;6.05;82.53;101235.13;4107812;28;20392;-79
2023/01/04 08:15:52;;;;;;;;;;;;;;;6.06;82.67;101223.38;4109533;28;20006;-80
2023/01/04 08:18:12;;;;;;;;;;;;;;;6.06;83.06;101230.59;4103928;28;19977;-79
2023/01/04 08:20:33;;;;;;;;;;;;;;;6.06;83.80;101238.63;4106024;28;20270;-79
2023/01/04 08:22:54;;;;;;;;;;;;;;;6.08;83.72;101231.28;4108971;28;20043;-86
2023/01/04 08:25:15;;;;;;;;;;;;;;;6.07;84.26;101217.03;4105465;28;20276;-79
2023/01/04 08:27:35;;;;;;;;;;;;;;;6.06;84.45;101212.66;4106538;28;19933;-81
2023/01/04 08:29:56;;;;;;;;;;;;;;;6.07;85.11;101209.00;4104713;28;20617;-80
2023/01/04 08:32:17;;;;;;;;;;;;;;;6.06;85.05;101203.78;4106267;28;19928;-82
2023/01/04 08:34:38;;;;;;;;;;;;;;;6.11;85.25;101212.25;4108010;28;19932;-80
2023/01/04 08:36:58;;;;;;;;;;;;;;;6.10;85.26;101199.84;4107818;28;20917;-80
2023/01/04 08:39:20;;;;;;;;;;;;;;;6.12;85.64;101214.78;4120712;28;19928;-80
2023/01/04 08:41:50;;;;;;;;;;;;;;;6.16;85.59;101217.22;4108713;28;19933;-79
2023/01/04 08:44:11;;;;;;;;;;;;;;;6.18;85.79;101202.69;4107706;28;19980;-77
2023/01/04 08:46:32;;;;;;;;;;;;;;;6.18;85.99;101200.00;4107393;28;19932;-80
2023/01/04 08:48:52;;;;;;;;;;;;;;;6.19;86.28;101199.03;4107380;28;20383;-80
2023/01/04 08:51:14;;;;;;;;;;;;;;;6.17;86.70;101178.69;4107558;28;20404;-79
2023/01/04 08:53:34;;;;;;;;;;;;;;;6.21;86.84;101166.72;4107565;28;20424;-80
2023/01/04 08:55:57;;;;;;;;;;;;;;;6.21;86.88;101177.44;4108078;28;19964;-80
2023/01/04 08:58:18;;;;;;;;;;;;;;;6.21;86.87;101169.38;4108428;28;19968;-80
2023/01/04 09:00:39;;;;;;;;;;;;;;;6.21;87.33;101188.16;4107819;28;20009;-77
2023/01/04 09:02:59;;;;;;;;;;;;;;;6.23;87.77;101183.50;4107572;28;19933;-79
2023/01/04 09:05:19;;;;;;;;;;;;;;;6.23;87.69;101178.13;4107730;28;20010;-78
2023/01/04 09:07:40;;;;;;;;;;;;;;;6.24;87.91;101196.78;4107170;28;19929;-79
2023/01/04 09:10:00;;;;;;;;;;;;;;;6.24;88.09;101188.72;4119845;28;19984;-80
2023/01/04 09:12:22;;;;;;;;;;;;;;;6.27;88.06;101171.50;4107842;28;19996;-80
2023/01/04 09:14:43;;;;;;;;;;;;;;;6.26;88.43;101173.34;4111531;28;19996;-81
2023/01/04 09:17:04;;;;;;;;;;;;;;;6.25;88.98;101178.84;4106427;28;20030;-79
2023/01/04 09:19:24;;;;;;;;;;;;;;;6.28;89.39;101170.50;4106674;28;19985;-81
2023/01/04 09:21:45;;;;;;;;;;;;;;;6.24;89.84;101188.72;4107982;28;19976;-79
2023/01/04 09:24:05;;;;;;;;;;;;;;;6.25;90.14;101173.47;4106943;28;19933;-84
2023/01/04 09:26:26;;;;;;;;;;;;;;;6.23;90.53;101176.28;4107412;28;19932;-79
2023/01/04 09:28:48;;;;;;;;;;;;;;;6.22;91.22;101166.56;4108732;28;19977;-80
2023/01/04 09:31:09;;;;;;;;;;;;;;;6.20;91.47;101159.63;4105772;28;19933;-82
2023/01/04 09:33:30;;;;;;;;;;;;;;;6.20;91.69;101160.47;4108292;28;19932;-82
2023/01/04 09:35:51;;;;;;;;;;;;;;;6.22;91.82;101147.78;4106684;28;20440;-82
2023/01/04 09:38:11;;;;;;;;;;;;;;;6.23;92.12;101144.09;4105621;28;20017;-80
2023/01/04 09:40:33;;;;;;;;;;;;;;;6.25;91.91;101158.25;4106039;28;20022;-84
2023/01/04 09:42:53;;;;;;;;;;;;;;;6.25;91.94;101154.69;4106469;28;19937;-80
2023/01/04 09:45:18;;;;;;;;;;;;;;;6.25;92.33;101127.88;4120858;28;20006;-80
2023/01/04 09:47:39;;;;;;;;;;;;;;;6.24;92.66;101147.66;4107354;28;20326;-82
2023/01/04 09:50:01;;;;;;;;;;;;;;;6.27;92.26;101128.56;4112386;28;20017;-82
2023/01/04 09:52:22;;;;;;;;;;;;;;;6.26;92.36;101106.28;4107425;28;20284;-83
2023/01/04 09:54:44;;;;;;;;;;;;;;;6.28;92.42;101109.66;4108774;28;20013;-82
2023/01/04 09:57:05;;;;;;;;;;;;;;;6.28;92.58;101100.75;4107368;28;20353;-81
2023/01/04 09:59:29;;;;;;;;;;;;;;;6.30;92.44;101104.16;4108932;28;20514;-79
2023/01/04 10:01:52;;;;;;;;;;;;;;;6.31;92.37;101092.44;4108137;28;19929;-81
2023/01/04 10:04:15;;;;;;;;;;;;;;;6.31;92.41;101136.19;4106504;28;19933;-82
2023/01/04 10:06:36;;;;;;;;;;;;;;;6.33;92.57;101095.81;4105269;28;20013;-80
2023/01/04 10:08:57;;;;;;;;;;;;;;;6.34;92.68;101099.38;4107110;28;19929;-82
2023/01/04 10:11:21;;;;;;;;;;;;;;;6.35;92.55;101101.91;4105426;28;19977;-81
2023/01/04 10:13:49;;;;;;;;;;;;;;;6.36;93.18;101075.91;4111931;28;20307;-81
2023/01/04 10:16:12;;;;;;;;;;;;;;;6.37;93.15;101073.09;4107112;28;20036;-80
2023/01/04 10:18:36;;;;;;;;;;;;;;;6.39;93.30;101097.94;4110406;28;20859;-82
2023/01/04 10:21:03;;;;;;;;;;;;;;;6.39;93.29;101046.13;4092535;28;19974;-86
2023/01/04 10:23:28;;;;;;;;;;;;;;;6.40;93.24;101048.66;4105230;28;20012;-81
2023/01/04 10:25:51;;;;;;;;;;;;;;;6.42;93.11;101064.63;4118055;28;20044;-84
2023/01/04 10:28:15;;;;;;;;;;;;;;;6.44;92.88;101035.81;4115500;28;19937;-83
2023/01/04 10:30:38;;;;;;;;;;;;;;;6.44;93.11;101044.72;4108491;28;19949;-82
2023/01/04 10:33:00;;;;;;;;;;;;;;;6.44;93.08;101060.81;4120666;28;20036;-83
2023/01/04 10:35:23;;;;;;;;;;;;;;;6.46;93.08;101033.84;4118248;28;19932;-82
2023/01/04 10:37:44;;;;;;;;;;;;;;;6.45;93.11;101022.25;4108354;28;20348;-79
2023/01/04 10:40:10;;;;;;;;;;;;;;;6.45;93.26;101011.50;4109635;28;20001;-80
2023/01/04 10:42:32;;;;;;;;;;;;;;;6.46;93.57;101009.69;4122199;28;20568;-79
2023/01/04 10:44:59;;;;;;;;;;;;;;;6.46;93.73;101002.50;4109605;28;20033;-79
2023/01/04 10:47:20;;;;;;;;;;;;;;;6.45;93.77;101005.31;4109820;28;20327;-79
2023/01/04 10:49:42;;;;;;;;;;;;;;;6.46;93.98;100998.97;4110224;28;19929;-79
2023/01/04 10:52:05;;;;;;;;;;;;;;;6.47;93.70;101001.50;4109203;28;19929;-79
2023/01/04 10:54:26;;;;;;;;;;;;;;;6.46;93.63;100983.72;4109257;28;19929;-82
2023/01/04 10:56:49;;;;;;;;;;;;;;;6.47;93.73;100981.84;4109313;28;19929;-79
2023/01/04 10:59:10;;;;;;;;;;;;;;;6.48;93.60;100968.28;4109988;28;19972;-81
2023/01/04 11:01:32;;;;;;;;;;;;;;;6.47;93.73;100963.94;4109157;28;20308;-80
2023/01/04 11:03:53;;;;;;;;;;;;;;;6.49;93.63;100974.53;4108722;28;20333;-80
2023/01/04 11:06:14;;;;;;;;;;;;;;;6.50;93.75;100941.31;4109466;28;19969;-79
2023/01/04 11:08:36;;;;;;;;;;;;;;;6.51;93.61;100936.81;4109263;28;20396;-80
2023/01/04 11:10:57;;;;;;;;;;;;;;;6.52;93.23;100939.34;4110301;28;19985;-79
2023/01/04 11:13:17;;;;;;;;;;;;;;;6.54;93.17;100929.31;4122053;28;19929;-79
2023/01/04 11:15:41;;;;;;;;;;;;;;;6.56;92.97;100937.22;4109857;28;19933;-80
2023/01/04 11:18:02;;;;;;;;;;;;;;;6.57;92.81;100934.38;4109342;28;19929;-80
2023/01/04 11:20:23;;;;;;;;;;;;;;;6.60;92.33;100939.47;4114200;28;19929;-80
2023/01/04 11:22:44;;;;;;;;;;;;;;;6.60;92.32;100928.72;4108946;28;19929;-80
2023/01/04 11:25:07;;;;;;;;;;;;;;;6.63;92.59;100919.53;4108948;28;19933;-83
2023/01/04 11:27:29;;;;;;;;;;;;;;;6.63;92.40;100933.81;4110209;28;20001;-78
2023/01/04 11:29:51;;;;;;;;;;;;;;;6.65;92.03;100915.72;4107210;28;19933;-80
2023/01/04 11:32:14;;;;;;;;;;;;;;;6.68;91.81;100902.00;4108745;28;19933;-79
2023/01/04 11:34:52;;;;;;;;;;;;;;;6.70;91.77;100898.31;4108078;28;20427;-81
2023/01/04 11:37:27;;;;;;;;;;;;;;;6.73;91.69;100906.09;4106952;28;19933;-83
2023/01/04 11:39:47;;;;;;;;;;;;;;;6.74;91.45;100894.34;4107110;28;19929;-80
2023/01/04 11:42:14;;;;;;;;;;;;;;;6.76;91.68;100898.56;4107128;28;19933;-80
2023/01/04 11:44:35;;;;;;;;;;;;;;;6.79;91.25;100889.38;4108012;28;19932;-83
2023/01/04 11:47:06;;;;;;;;;;;;;;;6.80;91.06;100886.56;4105244;28;20456;-84
2023/01/04 11:49:27;;;;;;;;;;;;;;;6.83;91.24;100891.63;4103627;28;20028;-82
2023/01/04 11:51:47;;;;;;;;;;;;;;;6.86;91.11;100901.22;4104598;28;19933;-83
2023/01/04 11:54:18;;;;;;;;;;;;;;;6.87;91.09;100875.22;4104906;28;21517;-81
2023/01/04 11:56:38;;;;;;;;;;;;;;;6.90;91.42;100870.38;4103809;28;20012;-79
2023/01/04 11:59:11;;;;;;;;;;;;;;;6.91;91.32;100871.22;4104152;28;19929;-83
2023/01/04 12:01:32;;;;;;;;;;;;;;;6.92;91.47;100871.06;4107737;28;20005;-81
2023/01/04 12:03:53;;;;;;;;;;;;;;;6.93;91.44;100863.84;4104545;28;20367;-80
2023/01/04 12:06:14;;;;;;;;;;;;;;;6.96;91.89;100863.56;4100392;28;20400;-80
2023/01/04 12:08:35;;;;;;;;;;;;;;;6.98;91.27;100858.91;4106994;28;20029;-79
2023/01/04 12:10:55;;;;;;;;;;;;;;;6.99;91.41;100850.69;4106004;28;19936;-79
2023/01/04 12:13:16;;;;;;;;;;;;;;;7.01;91.54;100843.31;4106403;28;19933;-80
2023/01/04 12:15:39;;;;;;;;;;;;;;;7.02;91.34;100836.09;4105494;28;20022;-80
2023/01/04 12:18:02;;;;;;;;;;;;;;;7.03;90.94;100835.94;4105297;28;20028;-83
2023/01/04 12:20:22;;;;;;;;;;;;;;;7.06;91.32;100855.47;4102962;28;19937;-80
2023/01/04 12:22:43;;;;;;;;;;;;;;;7.09;91.03;100820.25;4102888;28;19934;-82
2023/01/04 12:25:04;;;;;;;;;;;;;;;7.09;90.73;100821.06;4104095;28;20017;-86
2023/01/04 12:27:24;;;;;;;;;;;;;;;7.12;90.65;100819.94;4104548;28;19929;-83
2023/01/04 12:29:53;;;;;;;;;;;;;;;7.13;90.45;100821.59;4104456;28;19957;-83
2023/01/04 12:32:32;;;;;;;;;;;;;;;7.14;90.54;100831.38;4101573;28;19933;-80
2023/01/04 12:34:54;;;;;;;;;;;;;;;7.17;90.47;100807.72;4101421;28;20012;-80
2023/01/04 12:37:48;;;;;;;;;;;;;;;7.16;90.15;100816.81;4102243;28;19957;-82
2023/01/04 12:40:23;;;;;;;;;;;;;;;7.18;90.34;100814.78;4114950;28;19952;-80
2023/01/04 12:42:46;;;;;;;;;;;;;;;7.19;89.70;100799.50;4103215;28;19933;-81
2023/01/04 12:45:16;;;;;;;;;;;;;;;7.18;89.45;100809.44;4103132;28;19933;-80
2023/01/04 12:50:22;;;;;;;;;;;;;;;7.21;89.97;100784.94;4105132;28;19929;-83
2023/01/04 12:52:43;;;;;;;;;;;;;;;7.22;90.09;100778.59;4117050;28;19928;-80
2023/01/04 12:55:04;;;;;;;;;;;;;;;7.24;89.97;100780.25;4103580;28;20024;-80
2023/01/04 12:57:25;;;;;;;;;;;;;;;7.24;90.19;100778.44;4104429;28;20211;-79
2023/01/04 12:59:53;;;;;;;;;;;;;;;7.22;90.53;100775.91;4100997;28;19974;-82
2023/01/04 13:02:15;;;;;;;;;;;;;;;7.22;91.16;100792.00;4115248;28;19997;-79
2023/01/04 13:04:39;;;;;;;;;;;;;;;7.22;91.76;100783.09;4104314;28;20399;-81
2023/01/04 13:07:02;;;;;;;;;;;;;;;7.24;91.54;100774.88;4105277;28;20037;-79